Time;durP1;ratioP1;P1;durP2;ratioP2;P2;SDS_P1;SDS_P2;PMS_P1;PMS_P2;Temp;Humidity;BMP_temperature;BMP_pressure;BME280_temperature;BME280_humidity;BME280_pressure;Samples;Min_cycle;Max_cycle;Signal;HPM_P1;HPM_P2
2023/06/18 00:01:08;;;;;;;15.80;7.85;;;;;;;22.30;46.62;101175.53;5111756;28;20065;-61
2023/06/18 00:03:33;;;;;;;10.13;6.95;;;;;;;22.34;46.24;101178.75;5104406;28;20403;-61
2023/06/18 00:05:59;;;;;;;9.93;6.85;;;;;;;22.21;46.98;101168.41;5092009;28;20125;-61
2023/06/18 00:08:25;;;;;;;8.10;6.65;;;;;;;22.26;46.56;101173.31;5112348;28;20394;-61
2023/06/18 00:10:50;;;;;;;7.60;6.50;;;;;;;22.05;47.67;101171.00;5093883;28;20020;-61
2023/06/18 00:13:16;;;;;;;10.63;7.20;;;;;;;21.99;47.59;101177.91;5111927;28;20024;-61
2023/06/18 00:15:44;;;;;;;9.27;6.70;;;;;;;22.03;47.11;101173.03;5111811;28;20027;-61
2023/06/18 00:18:09;;;;;;;8.75;7.38;;;;;;;22.07;47.54;101171.69;5112064;28;20049;-61
2023/06/18 00:20:35;;;;;;;10.27;6.88;;;;;;;22.00;47.56;101174.19;5111438;28;20490;-61
2023/06/18 00:23:01;;;;;;;10.20;7.13;;;;;;;22.08;47.37;101171.50;5111766;28;20028;-61
2023/06/18 00:25:29;;;;;;;8.07;6.95;;;;;;;22.00;47.34;101160.66;5093346;28;20108;-61
2023/06/18 00:27:55;;;;;;;7.72;6.90;;;;;;;21.97;47.71;101160.97;5111820;28;20019;-61
2023/06/18 00:30:21;;;;;;;9.70;7.25;;;;;;;22.04;46.66;101163.91;5111098;28;20043;-61
2023/06/18 00:32:48;;;;;;;13.10;8.02;;;;;;;21.96;46.79;101157.41;5124182;28;20019;-61
2023/06/18 00:35:14;;;;;;;12.80;7.88;;;;;;;21.95;48.11;101157.59;5132197;28;20024;-61
2023/06/18 00:37:43;;;;;;;9.98;7.63;;;;;;;22.00;46.81;101158.81;5123217;28;20023;-60
2023/06/18 00:40:12;;;;;;;13.00;7.38;;;;;;;21.94;47.35;101145.94;5111686;28;20036;-61
2023/06/18 00:42:39;;;;;;;9.10;7.28;;;;;;;22.00;47.23;101145.25;5093337;28;20443;-61
2023/06/18 00:45:08;;;;;;;10.45;7.53;;;;;;;22.02;47.46;101146.94;5092910;28;20046;-61
2023/06/18 00:47:44;;;;;;;9.27;7.75;;;;;;;21.94;46.88;101143.22;5111528;28;20024;-61
2023/06/18 00:50:16;;;;;;;10.02;7.90;;;;;;;21.96;47.31;101143.03;5081789;28;20019;-61
2023/06/18 00:52:47;;;;;;;9.95;7.45;;;;;;;22.00;47.53;101137.13;5097285;28;20096;-61
2023/06/18 00:55:17;;;;;;;11.38;8.15;;;;;;;21.96;47.38;101143.88;5115256;28;20020;-61
2023/06/18 00:57:49;;;;;;;10.15;7.15;;;;;;;21.77;49.17;101136.88;5096828;28;20023;-61
2023/06/18 01:00:16;;;;;;;9.35;7.82;;;;;;;21.75;48.98;101130.78;5114868;28;20438;-61
2023/06/18 01:02:45;;;;;;;8.73;7.60;;;;;;;21.84;48.87;101139.78;5096988;28;20032;-61
2023/06/18 01:05:13;;;;;;;9.85;7.15;;;;;;;21.79;49.26;101136.69;5114958;28;20020;-61
2023/06/18 01:07:41;;;;;;;10.40;8.30;;;;;;;21.81;49.53;101131.13;5127469;27;20023;-61
2023/06/18 01:10:07;;;;;;;8.80;7.43;;;;;;;21.82;49.54;101128.25;5096690;28;20486;-61
2023/06/18 01:12:33;;;;;;;7.85;6.80;;;;;;;21.75;49.81;101132.63;5115130;28;20432;-61
2023/06/18 01:14:59;;;;;;;12.43;7.72;;;;;;;21.71;49.71;101124.00;5114653;28;20024;-61
2023/06/18 01:17:33;;;;;;;10.77;7.43;;;;;;;21.80;49.04;101124.03;5096374;28;20076;-61
2023/06/18 01:20:13;;;;;;;8.13;7.30;;;;;;;21.72;49.68;101132.97;5101994;28;20051;-61
2023/06/18 01:22:46;;;;;;;9.88;7.75;;;;;;;21.69;50.21;101117.88;5098090;28;20043;-60
2023/06/18 01:25:13;;;;;;;10.00;7.80;;;;;;;21.66;50.62;101125.50;5111994;28;20027;-61
2023/06/18 01:27:40;;;;;;;11.20;8.63;;;;;;;21.60;50.57;101129.69;5096306;28;20106;-61
2023/06/18 01:30:09;;;;;;;10.73;7.78;;;;;;;21.42;50.58;101132.47;5096045;28;20033;-61
2023/06/18 01:32:38;;;;;;;12.20;8.15;;;;;;;21.37;50.90;101129.41;5096515;28;20028;-61
2023/06/18 01:35:08;;;;;;;8.25;7.20;;;;;;;21.28;51.36;101122.22;5114333;28;20509;-61
2023/06/18 01:37:36;;;;;;;9.82;7.32;;;;;;;21.38;51.70;101122.97;5096152;28;20059;-61
2023/06/18 01:40:46;;;;;;;9.23;7.97;;;;;;;21.41;51.04;101119.94;5096749;28;20034;-61
2023/06/18 01:43:27;;;;;;;9.13;7.72;;;;;;;21.28;51.41;101114.09;5098132;28;20100;-60
2023/06/18 01:45:57;;;;;;;9.10;8.10;;;;;;;21.11;51.94;101113.13;5114179;28;20494;-61
2023/06/18 01:48:26;;;;;;;14.30;8.40;;;;;;;21.12;52.38;101104.03;5095949;28;20034;-61
2023/06/18 01:50:52;;;;;;;11.20;8.18;;;;;;;21.14;51.56;101109.25;5095928;28;20106;-61
2023/06/18 01:53:21;;;;;;;10.00;8.10;;;;;;;20.92;52.17;101111.50;5096030;28;20047;-60
2023/06/18 01:55:50;;;;;;;8.75;7.45;;;;;;;20.91;52.55;101107.06;5114233;28;20016;-61
2023/06/18 01:58:15;;;;;;;9.88;7.40;;;;;;;20.93;52.56;101105.06;5126631;27;20425;-61
2023/06/18 02:00:41;;;;;;;10.35;7.53;;;;;;;21.01;52.40;101104.28;5113066;28;20057;-61
2023/06/18 02:03:07;;;;;;;9.38;8.48;;;;;;;20.82;52.72;101110.72;5113869;28;20471;-61
2023/06/18 02:05:35;;;;;;;11.70;8.40;;;;;;;20.66;52.87;101102.50;5114030;28;20482;-61
2023/06/18 02:08:01;;;;;;;8.60;7.75;;;;;;;20.84;52.35;101095.19;5113893;28;20023;-61
2023/06/18 02:10:26;;;;;;;10.52;8.27;;;;;;;20.81;53.14;101106.34;5110856;28;20050;-61
2023/06/18 02:12:56;;;;;;;9.07;8.18;;;;;;;20.82;52.54;101099.91;5114158;28;20016;-61
2023/06/18 02:15:22;;;;;;;10.07;8.02;;;;;;;20.77;53.32;101100.41;5095488;28;20023;-61
2023/06/18 02:17:50;;;;;;;9.57;8.48;;;;;;;20.61;53.86;101098.38;5113329;28;20081;-61
2023/06/18 02:20:18;;;;;;;9.50;8.52;;;;;;;20.62;53.98;101096.56;5095190;28;20031;-61
2023/06/18 02:22:44;;;;;;;10.93;8.50;;;;;;;20.62;53.91;101093.84;5113685;28;20498;-61
2023/06/18 02:25:10;;;;;;;11.02;8.32;;;;;;;20.66;53.97;101092.53;5109662;28;20691;-60
2023/06/18 02:27:35;;;;;;;12.02;8.93;;;;;;;20.69;53.57;101100.31;5083044;28;20019;-61
2023/06/18 02:30:02;;;;;;;12.23;8.07;;;;;;;20.62;53.80;101089.31;5094904;28;20027;-61
2023/06/18 02:32:30;;;;;;;9.50;8.48;;;;;;;20.41;54.10;101086.91;5095606;28;20028;-61
2023/06/18 02:34:56;;;;;;;11.43;8.63;;;;;;;20.52;54.44;101090.34;5113521;28;20030;-61
2023/06/18 02:37:21;;;;;;;12.25;8.57;;;;;;;20.48;54.14;101083.56;5112555;28;20281;-60
2023/06/18 02:39:47;;;;;;;9.70;8.65;;;;;;;20.41;54.55;101088.72;5098760;28;20084;-61
2023/06/18 02:42:14;;;;;;;9.52;8.48;;;;;;;20.23;55.07;101068.97;5112597;28;20043;-60
2023/06/18 02:44:41;;;;;;;15.07;9.20;;;;;;;20.14;55.46;101078.84;5100112;28;20028;-61
2023/06/18 02:47:08;;;;;;;10.07;9.07;;;;;;;20.02;56.08;101077.38;5098180;28;20042;-61
2023/06/18 02:49:34;;;;;;;12.75;8.55;;;;;;;20.11;55.31;101087.25;5093996;28;20031;-60
2023/06/18 02:51:59;;;;;;;9.77;8.18;;;;;;;20.04;55.70;101078.06;5111813;28;20034;-61
2023/06/18 02:54:24;;;;;;;10.10;9.07;;;;;;;20.04;55.92;101081.63;5111129;28;20062;-61
2023/06/18 02:56:50;;;;;;;11.90;9.60;;;;;;;19.86;57.02;101078.06;5093172;28;20020;-61
2023/06/18 02:59:18;;;;;;;10.32;9.32;;;;;;;19.94;56.13;101075.41;5093199;28;20067;-61
2023/06/18 03:01:45;;;;;;;10.55;9.55;;;;;;;19.95;56.39;101088.78;5102324;28;20019;-61
2023/06/18 03:04:11;;;;;;;11.27;9.57;;;;;;;19.97;55.98;101085.91;5082372;28;20500;-61
2023/06/18 03:06:37;;;;;;;10.55;9.35;;;;;;;19.83;56.64;101089.16;5112150;28;20050;-61
2023/06/18 03:09:03;;;;;;;10.85;9.55;;;;;;;19.90;56.42;101084.84;5081826;28;20020;-61
2023/06/18 03:11:30;;;;;;;11.77;9.30;;;;;;;19.85;56.76;101092.53;5091261;28;20082;-61
2023/06/18 03:13:55;;;;;;;11.70;10.50;;;;;;;19.85;56.48;101095.22;5098558;28;20026;-61
2023/06/18 03:16:26;;;;;;;11.07;9.80;;;;;;;19.84;56.28;101090.84;5112124;28;20015;-61
2023/06/18 03:18:51;;;;;;;12.80;10.23;;;;;;;19.64;56.84;101099.00;5073578;28;20020;-61
2023/06/18 03:21:17;;;;;;;10.75;9.65;;;;;;;19.76;56.68;101088.88;5101147;28;20032;-60
2023/06/18 03:23:44;;;;;;;13.38;10.60;;;;;;;19.60;57.20;101083.28;5111398;28;20257;-61
2023/06/18 03:26:11;;;;;;;11.50;10.38;;;;;;;19.70;56.77;101087.63;5110597;28;20055;-61
2023/06/18 03:28:37;;;;;;;12.65;10.07;;;;;;;19.54;57.15;101073.94;5078577;28;20015;-61
2023/06/18 03:31:02;;;;;;;11.82;10.63;;;;;;;19.64;56.96;101090.91;5103614;28;20024;-61
2023/06/18 03:33:31;;;;;;;12.57;11.18;;;;;;;19.64;57.17;101090.91;5106844;28;20105;-61
2023/06/18 03:36:00;;;;;;;12.98;11.60;;;;;;;19.69;57.33;101088.66;5091905;28;20028;-60
2023/06/18 03:38:28;;;;;;;12.80;11.25;;;;;;;19.70;57.24;101084.94;5106692;28;20041;-61
2023/06/18 03:40:53;;;;;;;14.77;11.50;;;;;;;19.67;56.91;101089.78;5112320;28;20072;-61
2023/06/18 03:43:19;;;;;;;12.10;10.98;;;;;;;19.48;57.15;101078.06;5111025;28;20036;-61
2023/06/18 03:45:45;;;;;;;12.93;11.00;;;;;;;19.73;57.36;101084.63;5096478;28;20080;-61
2023/06/18 03:48:10;;;;;;;12.02;10.90;;;;;;;19.69;57.28;101085.94;5101306;28;20047;-61
2023/06/18 03:50:36;;;;;;;14.88;11.43;;;;;;;19.69;57.20;101091.34;5086058;28;20028;-61
2023/06/18 03:53:03;;;;;;;15.60;12.00;;;;;;;19.49;58.32;101095.94;5096033;28;20031;-61
2023/06/18 03:55:31;;;;;;;13.65;12.20;;;;;;;19.47;58.45;101097.09;5106762;28;20482;-61
2023/06/18 03:57:56;;;;;;;16.30;12.30;;;;;;;19.52;57.71;101105.59;5110372;28;20024;-60
2023/06/18 04:00:22;;;;;;;14.75;12.35;;;;;;;19.51;56.92;101107.44;5110455;28;20084;-61
2023/06/18 04:02:52;;;;;;;14.25;12.15;;;;;;;19.18;58.21;101086.44;5110922;28;20024;-61
2023/06/18 04:05:17;;;;;;;14.20;12.02;;;;;;;19.57;57.23;101107.88;5098396;28;20092;-61
2023/06/18 04:07:42;;;;;;;14.60;12.18;;;;;;;19.50;57.72;101107.59;5092829;28;20136;-61
2023/06/18 04:10:08;;;;;;;15.07;12.05;;;;;;;19.44;58.54;101111.75;5110885;28;20097;-61
2023/06/18 04:12:33;;;;;;;13.23;12.00;;;;;;;19.61;57.31;101110.09;5110993;28;20087;-61
2023/06/18 04:14:59;;;;;;;12.65;11.50;;;;;;;19.48;58.49;101110.44;5091905;28;20012;-61
2023/06/18 04:17:27;;;;;;;12.93;11.73;;;;;;;19.59;58.01;101108.53;5094374;28;20032;-61
2023/06/18 04:19:53;;;;;;;13.48;12.07;;;;;;;19.34;58.28;101086.66;5098990;28;20232;-61
2023/06/18 04:22:18;;;;;;;13.77;11.50;;;;;;;19.41;58.80;101109.34;5112148;28;20528;-61
2023/06/18 04:24:46;;;;;;;14.77;12.75;;;;;;;19.51;57.81;101101.22;5096529;28;20046;-61
2023/06/18 04:27:12;;;;;;;14.20;12.05;;;;;;;19.42;58.79;101104.81;5111221;28;20386;-61
2023/06/18 04:29:37;;;;;;;13.75;12.38;;;;;;;19.56;57.87;101109.72;5079517;28;20027;-62
2023/06/18 04:32:03;;;;;;;15.65;11.85;;;;;;;19.61;58.13;101109.25;5114540;28;20026;-61
2023/06/18 04:34:28;;;;;;;13.73;12.27;;;;;;;19.60;58.49;101103.00;5087185;28;20052;-60
2023/06/18 04:36:53;;;;;;;14.25;12.48;;;;;;;19.48;58.22;101099.66;5112901;28;20026;-61
2023/06/18 04:39:19;;;;;;;13.75;12.32;;;;;;;19.59;57.62;101105.84;5115976;28;20531;-61
2023/06/18 04:41:44;;;;;;;14.55;12.52;;;;;;;19.55;58.31;101099.91;5115468;28;20390;-61
2023/06/18 04:44:12;;;;;;;13.93;12.60;;;;;;;19.64;58.80;101096.31;5115458;28;20461;-61
2023/06/18 04:46:39;;;;;;;13.13;11.88;;;;;;;19.55;58.44;101093.66;5110183;27;20064;-61
2023/06/18 04:49:04;;;;;;;14.85;13.40;;;;;;;19.57;56.21;101078.19;5115714;28;20102;-61
2023/06/18 04:51:32;;;;;;;16.85;13.73;;;;;;;19.76;55.31;101104.25;5115410;28;20024;-61
2023/06/18 04:53:57;;;;;;;15.40;13.35;;;;;;;19.68;57.27;101095.06;5097277;28;20224;-61
2023/06/18 04:56:23;;;;;;;15.40;13.10;;;;;;;19.81;55.63;101105.50;5112204;28;20016;-61
2023/06/18 04:58:48;;;;;;;16.08;13.18;;;;;;;19.85;55.75;101108.72;5087921;28;20128;-61
2023/06/18 05:01:16;;;;;;;16.02;12.68;;;;;;;19.84;57.06;101112.44;5094296;28;20107;-61
2023/06/18 05:03:43;;;;;;;18.80;14.00;;;;;;;19.78;57.66;101103.09;5110672;27;20386;-61
2023/06/18 05:06:09;;;;;;;17.75;13.38;;;;;;;19.96;55.97;101111.22;5096300;28;20023;-61
2023/06/18 05:08:34;;;;;;;14.35;13.05;;;;;;;19.99;55.23;101108.22;5114803;28;20110;-61
2023/06/18 05:11:00;;;;;;;14.77;13.18;;;;;;;20.04;54.72;101107.78;5112728;28;20125;-61
2023/06/18 05:13:27;;;;;;;14.73;13.32;;;;;;;20.07;56.20;101112.88;5096037;28;20024;-61
2023/06/18 05:15:53;;;;;;;17.20;13.70;;;;;;;20.06;56.34;101111.16;5102779;28;20024;-61
2023/06/18 05:18:18;;;;;;;14.88;13.07;;;;;;;20.16;53.84;101111.97;5108877;28;20475;-61
2023/06/18 05:20:47;;;;;;;13.77;12.38;;;;;;;20.24;54.95;101103.94;5118304;27;20023;-61
2023/06/18 05:23:12;;;;;;;14.70;12.17;;;;;;;20.25;56.23;101113.75;5135429;27;20019;-61
2023/06/18 05:25:37;;;;;;;14.13;12.45;;;;;;;20.37;54.42;101098.16;5116902;27;20693;-61
2023/06/18 05:28:04;;;;;;;17.13;13.38;;;;;;;20.43;52.84;101119.16;5096197;28;20023;-61
2023/06/18 05:30:30;;;;;;;15.63;12.98;;;;;;;20.43;54.60;101124.53;5114049;28;20535;-61
2023/06/18 05:32:58;;;;;;;15.57;13.20;;;;;;;20.42;54.23;101106.66;5114828;28;20099;-61
2023/06/18 05:35:23;;;;;;;14.70;13.25;;;;;;;20.58;51.80;101120.31;5113801;28;20120;-61
2023/06/18 05:37:49;;;;;;;14.38;12.75;;;;;;;20.68;53.05;101112.16;5096831;28;20474;-61
2023/06/18 05:40:14;;;;;;;15.35;13.15;;;;;;;20.84;51.64;101125.78;5095886;28;20045;-60
2023/06/18 05:42:40;;;;;;;14.60;12.95;;;;;;;20.94;49.72;101117.59;5114009;28;20130;-60
2023/06/18 05:45:06;;;;;;;13.52;12.13;;;;;;;20.98;48.29;101124.38;5113729;28;20497;-61
2023/06/18 05:47:34;;;;;;;13.13;11.77;;;;;;;20.97;50.23;101117.28;5096036;28;20330;-61
2023/06/18 05:50:00;;;;;;;14.88;12.48;;;;;;;21.09;48.63;101126.84;5107652;28;20068;-61
2023/06/18 05:52:25;;;;;;;13.32;12.00;;;;;;;21.12;48.33;101127.50;5099003;28;20599;-61
2023/06/18 05:54:53;;;;;;;12.50;11.23;;;;;;;21.22;47.35;101131.81;5118627;27;20089;-61
2023/06/18 05:57:18;;;;;;;16.55;11.15;;;;;;;21.23;48.08;101122.66;5112775;28;20019;-60
2023/06/18 05:59:47;;;;;;;15.45;11.48;;;;;;;21.39;47.73;101132.78;5105935;28;20475;-61
2023/06/18 06:02:12;;;;;;;12.35;10.80;;;;;;;21.44;46.77;101130.47;5103500;28;20470;-61
2023/06/18 06:04:38;;;;;;;13.90;11.13;;;;;;;21.57;49.04;101127.31;5113673;28;20031;-61
2023/06/18 06:07:03;;;;;;;12.20;10.98;;;;;;;21.69;47.46;101117.03;5113916;28;20028;-62
2023/06/18 06:09:31;;;;;;;14.50;10.27;;;;;;;21.82;48.32;101130.97;5113498;28;20436;-61
2023/06/18 06:11:56;;;;;;;14.90;10.80;;;;;;;21.85;45.75;101127.91;5110479;28;20026;-61
2023/06/18 06:14:22;;;;;;;13.00;9.63;;;;;;;21.93;46.70;101129.81;5112071;28;20535;-62
2023/06/18 06:16:48;;;;;;;16.77;9.77;;;;;;;22.05;46.87;101131.22;5079014;28;20035;-61
2023/06/18 06:19:16;;;;;;;11.80;8.90;;;;;;;22.16;43.53;101130.06;5106973;28;20028;-61
2023/06/18 06:21:44;;;;;;;9.88;8.85;;;;;;;22.19;43.71;101135.19;5112409;28;20034;-61
2023/06/18 06:24:09;;;;;;;10.10;7.90;;;;;;;22.12;43.32;101128.69;5095098;28;20073;-61
2023/06/18 06:26:37;;;;;;;9.48;7.32;;;;;;;22.13;45.90;101135.81;5093904;28;20015;-62
2023/06/18 06:29:02;;;;;;;15.57;7.90;;;;;;;22.16;42.65;101149.88;5112746;28;20527;-61
2023/06/18 06:31:28;;;;;;;9.10;6.72;;;;;;;22.08;42.77;101141.72;5111810;28;20031;-61
2023/06/18 06:33:53;;;;;;;9.95;7.22;;;;;;;22.03;43.62;101187.44;5112407;28;20027;-61
2023/06/18 06:36:19;;;;;;;11.45;7.18;;;;;;;21.97;43.02;101201.59;5113372;28;20374;-61
2023/06/18 06:38:44;;;;;;;14.02;7.68;;;;;;;21.92;43.59;101196.69;5112055;28;20057;-61
2023/06/18 06:41:09;;;;;;;12.10;8.15;;;;;;;21.91;44.63;101196.84;5097846;28;20032;-61
2023/06/18 06:43:35;;;;;;;10.73;7.47;;;;;;;21.88;44.62;101203.44;5091227;28;20051;-62
2023/06/18 06:46:00;;;;;;;12.25;8.32;;;;;;;21.77;44.74;101185.63;5097385;28;20062;-61
2023/06/18 06:48:26;;;;;;;17.80;8.20;;;;;;;21.77;46.66;101203.72;5098822;28;20024;-62
2023/06/18 06:50:53;;;;;;;11.57;7.82;;;;;;;21.74;46.56;101198.63;5092933;28;20020;-61
2023/06/18 06:53:18;;;;;;;9.50;8.48;;;;;;;21.87;45.84;101200.91;5091051;28;20059;-61
2023/06/18 06:55:44;;;;;;;11.60;8.73;;;;;;;21.86;46.46;101193.78;5092454;28;20047;-62
2023/06/18 06:58:09;;;;;;;11.88;8.50;;;;;;;21.85;46.46;101203.75;5091084;28;20031;-61
2023/06/18 07:00:35;;;;;;;14.23;8.82;;;;;;;21.88;46.88;101198.00;5091886;28;20513;-61
2023/06/18 07:03:00;;;;;;;10.65;8.85;;;;;;;21.93;46.21;101195.66;5093052;28;20043;-61
2023/06/18 07:05:25;;;;;;;10.07;8.63;;;;;;;21.94;45.88;101194.69;5092434;28;20102;-61
2023/06/18 07:07:53;;;;;;;11.70;9.32;;;;;;;21.96;46.30;101195.34;5092409;28;20092;-61
2023/06/18 07:10:19;;;;;;;11.68;9.98;;;;;;;21.99;45.22;101197.72;5092378;28;20028;-61
2023/06/18 07:12:44;;;;;;;11.88;9.27;;;;;;;21.99;46.91;101203.13;5092088;28;20026;-61
2023/06/18 07:15:10;;;;;;;11.07;9.95;;;;;;;22.07;45.41;101199.63;5090710;28;20020;-61
2023/06/18 07:17:35;;;;;;;13.48;9.35;;;;;;;22.10;46.03;101204.72;5070667;28;20502;-61
2023/06/18 07:20:01;;;;;;;10.98;9.32;;;;;;;22.12;46.96;101197.28;5071703;28;20025;-61
2023/06/18 07:22:26;;;;;;;12.93;9.50;;;;;;;22.15;46.22;101196.97;5084888;28;20489;-61
2023/06/18 07:24:53;;;;;;;16.17;9.60;;;;;;;22.12;46.43;101208.13;5091887;28;20031;-61
2023/06/18 07:27:19;;;;;;;15.93;9.98;;;;;;;22.09;47.27;101192.19;5088912;28;20449;-61
2023/06/18 07:29:45;;;;;;;10.63;9.63;;;;;;;22.10;48.30;101182.22;5084427;28;20077;-61
2023/06/18 07:32:10;;;;;;;15.30;9.23;;;;;;;22.10;48.53;101188.47;5089146;28;20024;-61
2023/06/18 07:34:35;;;;;;;13.02;9.32;;;;;;;;;;5085967;28;20646;-62
2023/06/18 07:37:03;;;;;;;10.65;8.68;;;;;;;22.34;48.06;101189.59;5089401;28;20390;-61
2023/06/18 07:39:31;;;;;;;15.38;9.20;;;;;;;22.38;48.02;101188.22;5089777;28;20394;-61
2023/06/18 07:41:56;;;;;;;13.95;9.57;;;;;;;22.42;47.49;101184.19;5075688;28;20027;-60
2023/06/18 07:44:22;;;;;;;16.25;8.77;;;;;;;22.52;48.84;101178.63;5104217;28;20047;-61
2023/06/18 07:46:48;;;;;;;27.75;9.77;;;;;;;22.61;48.67;101194.72;5099162;28;20024;-61
2023/06/18 07:49:16;;;;;;;18.00;8.82;;;;;;;22.69;48.79;101185.75;5089801;28;20032;-61
2023/06/18 07:51:42;;;;;;;15.52;8.68;;;;;;;22.71;48.57;101185.56;5095456;28;20733;-61
2023/06/18 07:54:07;;;;;;;10.20;8.63;;;;;;;22.76;48.21;101185.94;5114341;28;20022;-61
2023/06/18 07:56:33;;;;;;;15.85;8.75;;;;;;;22.90;48.64;101186.09;5090301;28;20055;-61
2023/06/18 07:58:58;;;;;;;14.82;8.93;;;;;;;23.00;47.50;101185.13;5095040;28;20031;-61
2023/06/18 08:01:23;;;;;;;16.27;8.82;;;;;;;23.00;47.47;101182.41;5080430;28;20019;-60
2023/06/18 08:03:49;;;;;;;9.55;8.65;;;;;;;23.03;48.60;101185.66;5084588;28;20098;-61
2023/06/18 08:06:16;;;;;;;14.38;8.77;;;;;;;22.98;49.37;101182.59;5086547;28;20028;-60
2023/06/18 08:08:46;;;;;;;10.65;8.05;;;;;;;22.97;51.37;101183.63;5106139;28;20023;-60
2023/06/18 08:11:14;;;;;;;9.95;7.70;;;;;;;23.01;48.98;101184.13;5093293;28;20068;-60
2023/06/18 08:13:40;;;;;;;11.73;8.20;;;;;;;23.19;48.38;101178.50;5109916;28;20047;-60
2023/06/18 08:16:06;;;;;;;9.20;7.95;;;;;;;23.31;49.37;101186.13;5111278;28;20100;-60
2023/06/18 08:18:31;;;;;;;11.32;7.63;;;;;;;23.24;48.04;101179.69;5112021;28;20024;-60
2023/06/18 08:20:56;;;;;;;10.15;8.02;;;;;;;23.26;49.75;101182.22;5111856;28;20501;-60
2023/06/18 08:23:22;;;;;;;10.80;8.63;;;;;;;23.36;47.94;101172.03;5094551;28;20042;-61
2023/06/18 08:25:47;;;;;;;11.63;7.63;;;;;;;23.33;49.93;101170.50;5111744;28;20023;-60
2023/06/18 08:28:13;;;;;;;10.55;7.47;;;;;;;23.31;50.39;101166.28;5093583;28;20428;-60
2023/06/18 08:30:40;;;;;;;13.18;8.73;;;;;;;23.38;48.99;101171.84;5074249;28;20436;-60
2023/06/18 08:33:06;;;;;;;10.38;7.47;;;;;;;23.35;50.22;101164.91;5111422;28;20383;-60
2023/06/18 08:35:31;;;;;;;8.63;7.35;;;;;;;23.38;48.92;101158.28;5111542;28;20110;-60
2023/06/18 08:37:59;;;;;;;9.43;7.65;;;;;;;23.32;51.27;101165.25;5093487;28;20028;-60
2023/06/18 08:40:28;;;;;;;15.55;8.32;;;;;;;23.35;50.97;101170.31;5111846;28;20080;-60
2023/06/18 08:42:53;;;;;;;;;;;;;;;23.46;49.71;101169.13;5109225;28;20047;-61
2023/06/18 08:45:19;;;;;;;8.18;7.47;;;;;;;23.38;49.17;101161.00;5110364;28;19919;-60
2023/06/18 08:47:48;;;;;;;11.70;8.07;;;;;;;23.23;51.04;101158.97;5111808;28;20072;-60
2023/06/18 08:50:18;;;;;;;10.93;8.20;;;;;;;23.21;50.78;101171.06;5107735;28;20024;-61
2023/06/18 08:52:49;;;;;;;9.18;8.05;;;;;;;23.14;50.84;101173.59;5073172;28;20113;-60
2023/06/18 08:55:17;;;;;;;9.30;8.40;;;;;;;23.10;52.23;101169.53;5092267;28;20015;-61
2023/06/18 08:57:52;;;;;;;9.88;7.43;;;;;;;22.97;52.08;101148.34;5091331;28;20024;-60
2023/06/18 09:00:20;;;;;;;11.73;8.90;;;;;;;23.00;51.22;101157.97;5095933;28;20035;-60
2023/06/18 09:02:48;;;;;;;8.70;7.88;;;;;;;23.04;53.05;101170.22;5109597;28;20031;-60
2023/06/18 09:05:17;;;;;;;9.03;7.70;;;;;;;23.02;53.45;101169.53;5111255;28;20050;-60
2023/06/18 09:07:46;;;;;;;9.77;8.05;;;;;;;23.02;51.04;101159.50;5109316;28;20034;-61
2023/06/18 09:10:12;;;;;;;10.75;8.50;;;;;;;23.08;50.39;101161.53;5111928;28;20024;-61
2023/06/18 09:12:37;;;;;;;13.60;8.90;;;;;;;23.14;50.42;101170.88;5115126;28;20031;-60
2023/06/18 09:15:03;;;;;;;9.18;8.30;;;;;;;23.17;50.66;101173.25;5091265;28;20503;-60
2023/06/18 09:17:28;;;;;;;9.63;8.60;;;;;;;23.17;50.55;101169.69;5083549;28;20040;-60
2023/06/18 09:19:55;;;;;;;10.65;8.32;;;;;;;23.16;51.46;101168.00;5112507;28;20116;-62
2023/06/18 09:22:22;;;;;;;9.43;8.43;;;;;;;23.19;53.06;101162.22;5112928;28;20041;-60
2023/06/18 09:24:57;;;;;;;11.75;8.63;;;;;;;23.33;52.03;101178.66;5079936;28;20114;-60
2023/06/18 09:27:31;;;;;;;10.40;8.40;;;;;;;23.36;50.44;101174.75;5114533;28;20403;-59
2023/06/18 09:29:56;;;;;;;11.48;8.80;;;;;;;23.39;49.86;101176.28;5113465;28;20031;-59
2023/06/18 09:32:22;;;;;;;10.63;8.82;;;;;;;23.32;49.46;101171.53;5096007;28;20043;-59
2023/06/18 09:34:47;;;;;;;13.32;8.82;;;;;;;23.40;50.02;101173.38;5114586;28;20015;-63
2023/06/18 09:37:14;;;;;;;9.73;8.73;;;;;;;23.45;50.91;101181.88;5114537;28;20028;-65
2023/06/18 09:39:40;;;;;;;10.65;9.40;;;;;;;23.49;50.24;101175.06;5114432;28;20475;-67
2023/06/18 09:42:09;;;;;;;10.50;8.52;;;;;;;23.52;50.34;101184.72;5114170;28;20122;-64
2023/06/18 09:44:34;;;;;;;11.35;9.13;;;;;;;23.57;51.54;101174.19;5113870;28;20387;-64
2023/06/18 09:47:03;;;;;;;9.88;9.02;;;;;;;23.56;51.69;101178.78;5095672;28;20026;-64
2023/06/18 09:49:29;;;;;;;9.80;8.77;;;;;;;23.55;57.43;101182.50;5113788;28;20030;-64
2023/06/18 09:51:54;;;;;;;9.90;9.00;;;;;;;23.50;58.18;101168.63;5094450;28;20085;-63
2023/06/18 09:54:21;;;;;;;11.52;10.38;;;;;;;23.51;55.22;101174.91;5094119;28;20028;-61
2023/06/18 09:57:02;;;;;;;13.35;10.20;;;;;;;23.52;60.37;101168.44;5093912;28;20103;-62
2023/06/18 09:59:31;;;;;;;11.27;9.63;;;;;;;23.50;61.67;101167.75;5093829;28;20394;-61
2023/06/18 10:01:56;;;;;;;10.07;9.18;;;;;;;23.42;60.05;101167.78;5109877;28;20084;-62
2023/06/18 10:04:22;;;;;;;14.07;9.63;;;;;;;23.41;59.74;101166.06;5114351;28;20020;-60
2023/06/18 10:07:02;;;;;;;11.35;9.77;;;;;;;23.33;61.82;101167.81;5114028;28;20459;-61
2023/06/18 10:09:40;;;;;;;9.20;8.15;;;;;;;23.33;59.19;101159.66;5113801;28;20034;-60
2023/06/18 10:12:06;;;;;;;11.68;8.43;;;;;;;23.30;64.86;101149.16;5094917;28;20027;-60
2023/06/18 10:14:33;;;;;;;9.68;8.63;;;;;;;23.28;61.91;101147.63;5095644;28;20398;-60
2023/06/18 10:17:07;;;;;;;10.00;8.38;;;;;;;23.35;62.47;101145.91;5113276;28;20458;-61
2023/06/18 10:19:48;;;;;;;14.65;8.93;;;;;;;23.42;60.11;101140.63;5113677;28;20030;-60
2023/06/18 10:22:15;;;;;;;9.40;8.60;;;;;;;23.46;59.05;101133.84;5112465;28;20035;-59
2023/06/18 10:24:52;;;;;;;11.15;9.30;;;;;;;23.57;64.18;101133.47;5095190;28;20122;-61
2023/06/18 10:27:18;;;;;;;11.75;9.20;;;;;;;23.57;64.88;101128.03;5112171;28;20030;-61
2023/06/18 10:29:43;;;;;;;9.98;9.05;;;;;;;23.57;63.25;101123.44;5116551;27;20032;-64
2023/06/18 10:32:10;;;;;;;10.73;8.43;;;;;;;23.52;61.47;101127.69;5113596;28;20019;-64
2023/06/18 10:34:39;;;;;;;9.52;8.20;;;;;;;23.58;61.05;101122.41;5113362;28;20011;-63
2023/06/18 10:37:06;;;;;;;12.63;9.30;;;;;;;23.59;60.28;101128.72;5094401;28;20035;-63
2023/06/18 10:39:34;;;;;;;10.50;8.75;;;;;;;23.60;64.29;101124.97;5082925;28;20442;-64
2023/06/18 10:42:11;;;;;;;9.93;8.98;;;;;;;23.72;60.69;101139.03;5104390;28;20459;-64
2023/06/18 10:44:58;;;;;;;9.45;8.48;;;;;;;23.74;59.88;101126.97;5107948;28;20455;-61
2023/06/18 10:47:25;;;;;;;11.48;9.98;;;;;;;23.70;58.78;101122.91;5092745;28;20486;-60
2023/06/18 10:50:03;;;;;;;11.00;9.07;;;;;;;23.80;57.31;101126.28;5074695;28;20028;-60
2023/06/18 10:52:45;;;;;;;10.88;8.52;;;;;;;24.01;59.31;101120.22;5111597;28;20471;-61
2023/06/18 10:55:20;;;;;;;14.15;9.40;;;;;;;24.07;56.05;101126.81;5113132;28;20054;-61
2023/06/18 10:57:47;;;;;;;9.13;8.27;;;;;;;24.08;55.25;101123.06;5112901;28;20110;-60
2023/06/18 11:00:16;;;;;;;9.13;8.32;;;;;;;24.07;56.07;101115.09;5112396;28;20094;-60
2023/06/18 11:02:41;;;;;;;;;;;;;;;24.32;55.72;101115.78;5108981;28;20024;-62
2023/06/18 11:05:13;;;;;;;9.98;7.60;;;;;;;24.11;57.25;101105.56;5111710;28;19916;-62
2023/06/18 11:07:40;;;;;;;11.43;8.25;;;;;;;24.17;56.62;101091.25;5092399;28;20499;-61
2023/06/18 11:10:05;;;;;;;11.60;7.88;;;;;;;24.32;56.42;101105.75;5105621;28;20106;-60
2023/06/18 11:12:36;;;;;;;8.82;7.93;;;;;;;24.29;55.90;101099.84;5112462;28;20066;-60
2023/06/18 11:15:21;;;;;;;8.95;8.05;;;;;;;24.30;56.05;101083.34;5112242;28;20428;-60
2023/06/18 11:17:53;;;;;;;11.27;8.50;;;;;;;24.25;56.43;101093.91;5112604;28;20031;-61
2023/06/18 11:20:23;;;;;;;8.77;7.97;;;;;;;24.23;59.23;101079.66;5094590;28;20546;-60